Time;durP1;ratioP1;P1;durP2;ratioP2;P2;SDS_P1;SDS_P2;PMS_P1;PMS_P2;Temp;Humidity;BMP_temperature;BMP_pressure;BME280_temperature;BME280_humidity;BME280_pressure;Samples;Min_cycle;Max_cycle;Signal;HPM_P1;HPM_P2
2022/09/21 00:01:08;;;;;;;0.10;0.10;;;;;;;5.93;100.00;97445.59;5035753;28;20041;-74
2022/09/21 00:03:34;;;;;;;0.10;0.10;;;;;;;5.86;100.00;97442.88;5020198;28;20029;-74
2022/09/21 00:06:02;;;;;;;0.10;0.10;;;;;;;5.91;100.00;97444.97;5035381;28;20033;-74
2022/09/21 00:08:27;;;;;;;0.10;0.10;;;;;;;5.98;100.00;97440.50;5036042;28;20504;-74
2022/09/21 00:10:53;;;;;;;0.10;0.10;;;;;;;6.02;100.00;97444.44;5037084;28;20563;-74
2022/09/21 00:13:20;;;;;;;0.10;0.10;;;;;;;5.91;100.00;97442.31;5037025;28;20094;-76
2022/09/21 00:15:46;;;;;;;0.10;0.10;;;;;;;5.86;100.00;97442.88;5037484;28;20503;-74
2022/09/21 00:18:12;;;;;;;0.10;0.10;;;;;;;5.88;100.00;97438.19;5032867;28;20525;-74
2022/09/21 00:20:42;;;;;;;0.10;0.10;;;;;;;5.84;100.00;97437.75;5035557;28;20028;-74
2022/09/21 00:23:08;;;;;;;0.10;0.10;;;;;;;5.85;100.00;97436.75;5037733;28;20037;-74
2022/09/21 00:25:34;;;;;;;0.10;0.10;;;;;;;5.53;100.00;97443.47;5037300;28;20028;-74
2022/09/21 00:28:00;;;;;;;0.10;0.10;;;;;;;5.36;100.00;97443.91;5036268;28;20364;-74
2022/09/21 00:30:25;;;;;;;0.03;0.03;;;;;;;5.25;100.00;97446.06;5035695;28;20037;-74
2022/09/21 00:32:52;;;;;;;0.10;0.10;;;;;;;5.27;100.00;97452.00;5034354;28;20036;-74
2022/09/21 00:35:17;;;;;;;0.22;0.10;;;;;;;5.34;100.00;97456.56;5036858;28;20029;-74
2022/09/21 00:37:43;;;;;;;0.10;0.10;;;;;;;5.37;100.00;97450.84;5020514;28;20036;-74
2022/09/21 00:40:09;;;;;;;0.10;0.10;;;;;;;5.30;100.00;97446.34;5035255;28;20028;-74
2022/09/21 00:42:36;;;;;;;0.10;0.10;;;;;;;5.37;100.00;97442.91;5033822;28;20048;-74
2022/09/21 00:45:02;;;;;;;0.32;0.10;;;;;;;5.42;100.00;97445.81;5036105;28;20684;-74
2022/09/21 00:47:32;;;;;;;0.10;0.10;;;;;;;5.39;100.00;97454.97;5035515;28;20040;-74
2022/09/21 00:49:59;;;;;;;0.10;0.10;;;;;;;5.32;100.00;97448.78;5035443;28;20048;-74
2022/09/21 00:52:30;;;;;;;0.10;0.10;;;;;;;5.40;100.00;97455.81;5033781;28;20040;-74
2022/09/21 00:55:25;;;;;;;0.10;0.10;;;;;;;5.46;100.00;97452.38;5037243;28;20040;-74
2022/09/21 00:58:00;;;;;;;0.10;0.10;;;;;;;5.51;100.00;97447.31;5034412;28;20126;-74
2022/09/21 01:00:27;;;;;;;0.10;0.10;;;;;;;5.49;100.00;97446.69;5033042;28;20415;-74
2022/09/21 01:03:00;;;;;;;0.10;0.10;;;;;;;5.43;100.00;97455.41;5035506;28;20401;-74
2022/09/21 01:05:27;;;;;;;0.10;0.10;;;;;;;5.24;100.00;97447.09;5035058;28;20041;-74
2022/09/21 01:07:54;;;;;;;0.10;0.10;;;;;;;5.24;100.00;97454.22;5019212;28;20033;-74
2022/09/21 01:10:21;;;;;;;0.10;0.10;;;;;;;5.23;100.00;97456.06;5035667;28;20388;-74
2022/09/21 01:13:04;;;;;;;0.10;0.10;;;;;;;5.16;100.00;97457.03;5036218;28;20144;-74
2022/09/21 01:15:49;;;;;;;0.10;0.10;;;;;;;5.20;100.00;97461.75;5037200;28;20052;-75
2022/09/21 01:18:35;;;;;;;0.15;0.10;;;;;;;5.19;100.00;97456.63;5035501;28;20041;-74
2022/09/21 01:21:20;;;;;;;0.10;0.10;;;;;;;5.20;100.00;97453.78;5033656;28;20037;-74
2022/09/21 01:24:10;;;;;;;0.08;0.08;;;;;;;5.28;100.00;97452.81;5033728;28;20036;-74
2022/09/21 01:26:49;;;;;;;0.10;0.10;;;;;;;5.29;100.00;97450.00;5035626;28;20033;-74
2022/09/21 01:29:32;;;;;;;0.10;0.10;;;;;;;5.33;100.00;97450.44;5033299;28;20029;-74
2022/09/21 01:32:05;;;;;;;0.10;0.10;;;;;;;5.24;100.00;97455.06;5030592;28;20055;-74
2022/09/21 01:34:41;;;;;;;0.10;0.10;;;;;;;5.05;100.00;97453.03;5034047;28;20236;-74
2022/09/21 01:37:13;;;;;;;0.10;0.10;;;;;;;5.06;100.00;97456.50;5030328;28;20483;-74
2022/09/21 01:39:43;;;;;;;0.00;0.00;;;;;;;5.09;100.00;97454.28;5032853;28;20036;-74
2022/09/21 01:42:11;;;;;;;0.10;0.10;;;;;;;5.06;100.00;97459.16;5034346;28;20040;-74
2022/09/21 01:44:39;;;;;;;0.10;0.10;;;;;;;4.97;100.00;97467.22;5034281;28;20024;-73
2022/09/21 01:47:09;;;;;;;0.10;0.10;;;;;;;4.77;100.00;97454.78;5018202;28;20377;-74
2022/09/21 01:49:39;;;;;;;0.10;0.10;;;;;;;4.78;100.00;97459.06;5033816;28;20040;-74
2022/09/21 01:52:13;;;;;;;0.10;0.10;;;;;;;4.77;100.00;97465.41;5033296;28;20036;-74
2022/09/21 01:54:42;;;;;;;0.10;0.10;;;;;;;4.86;100.00;97467.72;5033892;28;20028;-74
2022/09/21 01:57:22;;;;;;;0.10;0.10;;;;;;;4.83;100.00;97462.81;5028982;28;20029;-74
2022/09/21 01:59:50;;;;;;;0.10;0.10;;;;;;;4.83;100.00;97464.66;5018341;28;20211;-74
2022/09/21 02:02:22;;;;;;;0.10;0.10;;;;;;;4.86;100.00;97458.97;5032770;28;20040;-74
2022/09/21 02:04:48;;;;;;;0.15;0.15;;;;;;;4.84;100.00;97463.63;5038028;28;20025;-74
2022/09/21 02:07:16;;;;;;;0.10;0.10;;;;;;;4.75;100.00;97463.75;5035056;28;20113;-74
2022/09/21 02:09:42;;;;;;;0.10;0.10;;;;;;;4.69;100.00;97461.84;5038303;28;20447;-74
2022/09/21 02:12:08;;;;;;;0.10;0.10;;;;;;;4.64;100.00;97463.41;5032396;28;20178;-74
2022/09/21 02:14:36;;;;;;;0.10;0.10;;;;;;;4.64;100.00;97458.91;5034588;28;20021;-74
2022/09/21 02:17:25;;;;;;;0.10;0.10;;;;;;;4.73;100.00;97459.63;5035348;28;20029;-74
2022/09/21 02:20:11;;;;;;;0.13;0.10;;;;;;;4.74;100.00;97451.47;5036432;28;20108;-74
2022/09/21 02:23:02;;;;;;;0.10;0.10;;;;;;;4.65;100.00;97463.22;5015424;28;20036;-74
2022/09/21 02:25:52;;;;;;;0.10;0.10;;;;;;;4.48;100.00;97459.13;5035441;28;20371;-75
2022/09/21 02:28:43;;;;;;;0.10;0.10;;;;;;;4.48;100.00;97456.50;5031055;28;20527;-74
2022/09/21 02:31:25;;;;;;;0.10;0.10;;;;;;;4.55;100.00;97452.09;5029142;28;20079;-74
2022/09/21 02:34:03;;;;;;;0.10;0.10;;;;;;;4.54;100.00;97447.81;5019177;28;20040;-74
2022/09/21 02:36:47;;;;;;;0.10;0.10;;;;;;;4.51;100.00;97450.81;5035718;28;20498;-74
2022/09/21 02:39:29;;;;;;;0.10;0.10;;;;;;;4.53;100.00;97456.75;5038395;28;20582;-75
2022/09/21 02:42:02;;;;;;;0.10;0.10;;;;;;;4.59;100.00;97458.69;5036600;28;20037;-74
2022/09/21 02:44:54;;;;;;;0.10;0.10;;;;;;;4.64;100.00;97450.97;5037960;28;20315;-75
2022/09/21 02:47:45;;;;;;;0.10;0.10;;;;;;;4.63;100.00;97454.63;5030377;28;20041;-74
2022/09/21 02:50:19;;;;;;;0.10;0.10;;;;;;;4.68;100.00;97454.09;5035581;28;20062;-74
2022/09/21 02:52:44;;;;;;;0.15;0.10;;;;;;;4.64;100.00;97455.44;5036865;28;20028;-74
2022/09/21 02:55:13;;;;;;;0.10;0.10;;;;;;;4.64;100.00;97447.50;5038840;28;20468;-75
2022/09/21 02:57:40;;;;;;;0.10;0.10;;;;;;;4.63;100.00;97449.31;5036780;28;20122;-74
2022/09/21 03:00:06;;;;;;;0.10;0.10;;;;;;;4.56;100.00;97458.22;5018983;28;20042;-75
2022/09/21 03:02:39;;;;;;;0.10;0.10;;;;;;;4.43;100.00;97458.88;5032815;28;20036;-75
2022/09/21 03:05:06;;;;;;;0.10;0.10;;;;;;;4.34;100.00;97452.03;5034632;28;20256;-75
2022/09/21 03:07:32;;;;;;;0.30;0.13;;;;;;;4.30;100.00;97462.19;5037794;28;20679;-74
2022/09/21 03:09:58;;;;;;;0.10;0.10;;;;;;;4.28;100.00;97453.59;5040394;28;20049;-74
2022/09/21 03:12:23;;;;;;;0.22;0.10;;;;;;;4.36;100.00;97450.84;5036442;28;20090;-75
2022/09/21 03:14:50;;;;;;;0.10;0.10;;;;;;;4.33;100.00;97453.03;5040407;28;20128;-75
2022/09/21 03:17:16;;;;;;;0.10;0.10;;;;;;;4.34;100.00;97446.72;5033707;28;20057;-74
2022/09/21 03:19:41;;;;;;;0.10;0.10;;;;;;;4.30;100.00;97453.41;5037996;28;20108;-75
2022/09/21 03:22:07;;;;;;;0.10;0.10;;;;;;;4.35;100.00;97453.66;5037552;28;20033;-75
2022/09/21 03:24:44;;;;;;;0.10;0.10;;;;;;;4.30;100.00;97458.72;5020698;28;20416;-74
2022/09/21 03:27:11;;;;;;;0.10;0.10;;;;;;;4.19;100.00;97454.69;5005199;28;20147;-75
2022/09/21 03:29:36;;;;;;;0.10;0.10;;;;;;;4.16;100.00;97463.84;5036310;28;20206;-74
2022/09/21 03:32:02;;;;;;;0.10;0.10;;;;;;;4.14;100.00;97465.03;5035319;28;20041;-74
2022/09/21 03:34:28;;;;;;;0.10;0.10;;;;;;;4.10;100.00;97458.44;5037733;28;20025;-75
2022/09/21 03:36:53;;;;;;;0.10;0.10;;;;;;;4.13;100.00;97463.41;5036644;28;20226;-74
2022/09/21 03:39:19;;;;;;;0.10;0.10;;;;;;;4.19;100.00;97465.28;5034972;28;20025;-74
2022/09/21 03:41:44;;;;;;;0.10;0.10;;;;;;;4.22;100.00;97469.41;5035052;28;20025;-74
2022/09/21 03:44:10;;;;;;;0.20;0.10;;;;;;;4.21;100.00;97460.66;5035053;28;20047;-75
2022/09/21 03:46:35;;;;;;;0.20;0.10;;;;;;;4.12;100.00;97469.66;5034181;28;20049;-74
2022/09/21 03:49:01;;;;;;;0.28;0.10;;;;;;;4.06;100.00;97471.25;5020506;28;20135;-75
2022/09/21 03:51:30;;;;;;;0.00;0.00;;;;;;;4.05;100.00;97466.94;5034108;28;20094;-75
2022/09/21 03:53:56;;;;;;;0.10;0.10;;;;;;;3.98;100.00;97466.03;5036957;28;20243;-74
2022/09/21 03:56:22;;;;;;;0.10;0.10;;;;;;;4.06;100.00;97463.28;5034993;28;20475;-74
2022/09/21 03:58:47;;;;;;;0.10;0.10;;;;;;;4.12;100.00;97467.84;5036972;28;20039;-74
2022/09/21 04:01:13;;;;;;;0.10;0.10;;;;;;;4.11;100.00;97471.50;5030868;28;20499;-75
2022/09/21 04:03:38;;;;;;;0.10;0.10;;;;;;;4.04;100.00;97473.22;5022922;28;20024;-74
2022/09/21 04:06:11;;;;;;;0.10;0.10;;;;;;;3.90;100.00;97472.25;5036929;28;20150;-74
2022/09/21 04:08:38;;;;;;;0.10;0.10;;;;;;;3.84;100.00;97470.31;5037692;28;20032;-75
2022/09/21 04:11:17;;;;;;;0.10;0.10;;;;;;;3.88;100.00;97471.56;5021399;28;20080;-75
2022/09/21 04:13:43;;;;;;;0.10;0.10;;;;;;;3.91;100.00;97470.41;5040558;28;20025;-75
2022/09/21 04:16:09;;;;;;;0.10;0.10;;;;;;;3.84;100.00;97469.50;5037547;28;20270;-75
2022/09/21 04:18:36;;;;;;;0.22;0.10;;;;;;;3.80;100.00;97478.78;5038261;28;20033;-75
2022/09/21 04:21:03;;;;;;;0.10;0.10;;;;;;;3.85;100.00;97476.44;5035872;28;20106;-75
2022/09/21 04:23:28;;;;;;;0.10;0.10;;;;;;;3.84;100.00;97470.31;5037903;28;20029;-75
2022/09/21 04:25:54;;;;;;;0.10;0.10;;;;;;;3.89;100.00;97467.94;5019769;28;20064;-75
2022/09/21 04:28:21;;;;;;;0.10;0.10;;;;;;;3.94;100.00;97462.09;5039715;28;20136;-75
2022/09/21 04:30:47;;;;;;;0.10;0.10;;;;;;;3.96;100.00;97469.84;5039222;28;20036;-75
2022/09/21 04:33:13;;;;;;;0.10;0.10;;;;;;;4.01;100.00;97475.44;5039121;28;20368;-75
2022/09/21 04:35:38;;;;;;;0.10;0.10;;;;;;;4.02;100.00;97477.06;5040654;28;20586;-75
2022/09/21 04:38:04;;;;;;;0.10;0.10;;;;;;;4.04;100.00;97473.22;5038937;28;20373;-74
2022/09/21 04:40:29;;;;;;;0.28;0.20;;;;;;;4.01;100.00;97476.25;5034987;28;21278;-75
2022/09/21 04:42:55;;;;;;;0.10;0.10;;;;;;;4.00;100.00;97473.78;5022813;28;20670;-75
2022/09/21 04:45:22;;;;;;;0.10;0.10;;;;;;;3.95;100.00;97482.28;5040025;28;20029;-75
2022/09/21 04:47:47;;;;;;;0.10;0.10;;;;;;;3.98;100.00;97481.94;5036772;28;20274;-75
2022/09/21 04:50:13;;;;;;;0.10;0.10;;;;;;;4.00;100.00;97490.50;5037050;28;20235;-75
2022/09/21 04:52:39;;;;;;;0.10;0.10;;;;;;;4.01;100.00;97486.84;5037872;28;20028;-75
2022/09/21 04:55:05;;;;;;;0.10;0.10;;;;;;;4.02;100.00;97485.03;5041305;28;20027;-75
2022/09/21 04:57:31;;;;;;;0.10;0.10;;;;;;;3.97;100.00;97488.22;5034997;28;20055;-75
2022/09/21 04:59:56;;;;;;;0.10;0.10;;;;;;;4.07;100.00;97490.59;5020945;28;20028;-75
2022/09/21 05:02:22;;;;;;;0.10;0.10;;;;;;;4.14;100.00;97495.00;5036453;28;20092;-75
2022/09/21 05:04:48;;;;;;;0.10;0.10;;;;;;;4.22;100.00;97496.72;5039900;28;20531;-75
2022/09/21 05:07:14;;;;;;;0.10;0.10;;;;;;;4.28;100.00;97501.31;5036193;28;20040;-75
2022/09/21 05:12:24;;;;;;;0.10;0.10;;;;;;;4.36;100.00;97497.72;5019518;28;20380;-75
2022/09/21 05:14:49;;;;;;;0.10;0.10;;;;;;;4.39;100.00;97500.81;5002385;28;20228;-75
2022/09/21 05:17:15;;;;;;;0.10;0.10;;;;;;;4.36;100.00;97503.03;5017816;28;20243;-75
2022/09/21 05:19:41;;;;;;;0.10;0.10;;;;;;;4.32;100.00;97507.03;5020283;28;20017;-74
2022/09/21 05:22:07;;;;;;;0.10;0.10;;;;;;;4.30;100.00;97509.06;5018630;28;20131;-75
2022/09/21 05:24:32;;;;;;;0.10;0.10;;;;;;;4.24;100.00;97509.78;5001516;28;20319;-75
2022/09/21 05:26:58;;;;;;;0.05;0.05;;;;;;;4.26;100.00;97521.00;5018911;28;20039;-75
2022/09/21 05:29:24;;;;;;;0.17;0.10;;;;;;;4.28;100.00;97516.34;5018356;28;20095;-74
2022/09/21 05:32:12;;;;;;;0.10;0.10;;;;;;;4.26;100.00;97516.53;5016148;28;20028;-74
2022/09/21 05:35:06;;;;;;;0.10;0.10;;;;;;;4.33;100.00;97524.59;5018419;28;20365;-75
2022/09/21 05:37:38;;;;;;;0.10;0.10;;;;;;;4.31;100.00;97535.38;5000006;28;20080;-75
2022/09/21 05:40:04;;;;;;;;;;;;;;;4.36;100.00;97522.41;5003491;28;20583;-74
2022/09/21 05:42:30;;;;;;;0.13;0.10;;;;;;;4.35;100.00;97533.16;5015924;28;19995;-75
2022/09/21 05:44:55;;;;;;;0.10;0.10;;;;;;;4.33;100.00;97533.34;5020690;28;20063;-74
2022/09/21 05:47:39;;;;;;;0.10;0.10;;;;;;;4.38;100.00;97528.34;5018549;28;20024;-74
2022/09/21 05:50:29;;;;;;;0.10;0.10;;;;;;;4.35;100.00;97527.88;5001195;28;20036;-75
2022/09/21 05:53:00;;;;;;;0.10;0.10;;;;;;;4.38;100.00;97524.88;5018811;28;20037;-75
2022/09/21 05:55:38;;;;;;;;;;;;;;;4.43;100.00;97533.06;5000782;28;21406;-75
2022/09/21 05:58:48;;;;;;;0.10;0.10;;;;;;;4.44;100.00;97532.09;5021900;28;19909;-75
2022/09/21 06:01:35;;;;;;;0.10;0.10;;;;;;;4.53;100.00;97536.28;4994631;28;20049;-76
2022/09/21 06:04:02;;;;;;;0.10;0.10;;;;;;;4.56;100.00;97537.75;5020281;28;20527;-74
2022/09/21 06:06:27;;;;;;;0.10;0.10;;;;;;;4.65;100.00;97534.78;5016902;28;20029;-76
2022/09/21 06:08:53;;;;;;;0.10;0.10;;;;;;;4.69;100.00;97546.69;5024471;28;20041;-75
2022/09/21 06:11:18;;;;;;;0.13;0.10;;;;;;;4.78;100.00;97547.41;5033519;28;20036;-75
2022/09/21 06:13:44;;;;;;;0.10;0.10;;;;;;;4.81;100.00;97541.72;5044220;28;20040;-75
2022/09/21 06:16:10;;;;;;;0.10;0.10;;;;;;;4.89;100.00;97549.56;5024516;28;20084;-75
2022/09/21 06:18:38;;;;;;;0.10;0.10;;;;;;;4.98;100.00;97547.63;5045893;28;20144;-75
2022/09/21 06:21:04;;;;;;;0.10;0.10;;;;;;;5.06;100.00;97552.00;5043465;28;20087;-75
2022/09/21 06:23:30;;;;;;;0.10;0.10;;;;;;;5.15;100.00;97550.91;5025969;28;20021;-75
2022/09/21 06:25:56;;;;;;;0.10;0.10;;;;;;;5.23;100.00;97556.09;5044174;28;20494;-75
2022/09/21 06:28:22;;;;;;;0.20;0.17;;;;;;;5.32;100.00;97550.47;5042603;28;20115;-75
2022/09/21 06:30:51;;;;;;;0.10;0.10;;;;;;;5.41;100.00;97548.50;5043836;28;20381;-75
2022/09/21 06:33:19;;;;;;;0.10;0.10;;;;;;;5.49;100.00;97543.06;5042501;28;20395;-75
2022/09/21 06:36:05;;;;;;;0.22;0.20;;;;;;;5.58;100.00;97549.91;5042464;28;20225;-75
2022/09/21 06:38:31;;;;;;;0.10;0.10;;;;;;;5.71;100.00;97545.72;5041653;28;20041;-75
2022/09/21 06:41:01;;;;;;;0.10;0.10;;;;;;;5.76;100.00;97546.81;5025358;28;20039;-75
2022/09/21 06:43:27;;;;;;;0.52;0.10;;;;;;;5.83;100.00;97547.66;5044540;28;20315;-75
2022/09/21 06:45:57;;;;;;;0.10;0.10;;;;;;;5.92;100.00;97545.75;5025856;28;20452;-75
2022/09/21 06:48:24;;;;;;;0.10;0.10;;;;;;;6.04;100.00;97546.84;5043320;28;20123;-75
2022/09/21 06:50:49;;;;;;;0.10;0.10;;;;;;;6.11;100.00;97549.56;5042034;28;20369;-75
2022/09/21 06:53:16;;;;;;;0.10;0.10;;;;;;;6.16;100.00;97552.47;5025689;28;20055;-75
2022/09/21 06:55:41;;;;;;;0.20;0.15;;;;;;;6.21;100.00;97547.38;5041592;28;20028;-75
2022/09/21 06:58:07;;;;;;;0.10;0.10;;;;;;;6.29;100.00;97541.91;5041740;28;20472;-76
2022/09/21 07:00:32;;;;;;;0.10;0.10;;;;;;;6.40;100.00;97554.66;5041031;28;20109;-75
2022/09/21 07:02:58;;;;;;;0.10;0.10;;;;;;;6.50;100.00;97553.47;5043448;28;20033;-75
2022/09/21 07:05:24;;;;;;;0.10;0.10;;;;;;;6.60;100.00;97559.25;5042554;28;20037;-75
2022/09/21 07:07:50;;;;;;;0.25;0.10;;;;;;;6.69;100.00;97552.75;5044001;28;20071;-75
2022/09/21 07:10:16;;;;;;;0.20;0.17;;;;;;;6.82;100.00;97555.50;5041453;28;20060;-76
2022/09/21 07:12:42;;;;;;;0.10;0.10;;;;;;;6.94;100.00;97551.25;5041914;28;20506;-75
2022/09/21 07:15:09;;;;;;;0.10;0.10;;;;;;;7.02;100.00;97552.91;5041633;28;20183;-75
2022/09/21 07:17:37;;;;;;;0.10;0.10;;;;;;;7.18;100.00;97559.72;5022521;28;20395;-76
2022/09/21 07:20:04;;;;;;;0.10;0.10;;;;;;;7.31;100.00;97551.75;5040181;28;20507;-75
2022/09/21 07:22:31;;;;;;;0.10;0.10;;;;;;;7.35;100.00;97549.53;5039127;28;20037;-76
2022/09/21 07:24:56;;;;;;;0.10;0.10;;;;;;;7.39;100.00;97554.25;5042561;28;20020;-76
2022/09/21 07:27:26;;;;;;;0.30;0.20;;;;;;;7.51;100.00;97555.28;5039104;28;20222;-75
2022/09/21 07:29:52;;;;;;;0.10;0.10;;;;;;;7.63;100.00;97555.53;5042918;28;20048;-75
2022/09/21 07:32:18;;;;;;;0.10;0.10;;;;;;;7.74;100.00;97556.78;5040604;28;20045;-75
2022/09/21 07:34:44;;;;;;;0.10;0.10;;;;;;;7.83;100.00;97551.03;5039611;28;20036;-75
2022/09/21 07:37:10;;;;;;;0.10;0.10;;;;;;;7.88;100.00;97544.28;5037702;28;20041;-75
2022/09/21 07:39:37;;;;;;;0.10;0.10;;;;;;;7.95;100.00;97545.09;5040389;28;20025;-75
2022/09/21 07:42:04;;;;;;;0.10;0.10;;;;;;;8.00;100.00;97548.78;5041099;28;20107;-75
2022/09/21 07:44:29;;;;;;;0.17;0.10;;;;;;;8.11;100.00;97550.00;5025572;28;20100;-75
2022/09/21 07:46:55;;;;;;;0.10;0.10;;;;;;;8.19;100.00;97543.66;5040566;28;20211;-75
2022/09/21 07:49:20;;;;;;;0.20;0.15;;;;;;;8.29;100.00;97549.38;5040373;28;20029;-75
2022/09/21 07:51:46;;;;;;;0.10;0.10;;;;;;;8.32;100.00;97548.94;5016962;28;20369;-75
2022/09/21 07:54:11;;;;;;;0.10;0.10;;;;;;;8.41;100.00;97546.94;5004284;28;20502;-75
2022/09/21 07:56:37;;;;;;;0.10;0.10;;;;;;;8.49;100.00;97541.38;5035121;28;20033;-75
2022/09/21 07:59:06;;;;;;;0.10;0.10;;;;;;;8.60;100.00;97540.72;5041292;28;20044;-76
2022/09/21 08:01:37;;;;;;;0.10;0.10;;;;;;;8.72;100.00;97546.25;5037396;28;20526;-76
2022/09/21 08:04:06;;;;;;;0.20;0.20;;;;;;;8.81;100.00;97539.66;5042214;28;20214;-75
2022/09/21 08:06:34;;;;;;;0.10;0.10;;;;;;;8.88;100.00;97543.13;5040475;28;20037;-76
2022/09/21 08:09:00;;;;;;;0.10;0.10;;;;;;;8.98;100.00;97538.13;5043231;28;20384;-76
2022/09/21 08:11:29;;;;;;;0.10;0.10;;;;;;;9.10;100.00;97535.59;5036272;28;20838;-76
2022/09/21 08:14:00;;;;;;;0.10;0.10;;;;;;;9.16;100.00;97532.91;5040209;28;20095;-76
2022/09/21 08:16:27;;;;;;;0.10;0.10;;;;;;;9.24;100.00;97533.69;5023590;28;20091;-76
2022/09/21 08:18:53;;;;;;;0.10;0.10;;;;;;;9.36;100.00;97532.00;5038174;28;20017;-76
2022/09/21 08:21:19;;;;;;;0.10;0.10;;;;;;;9.49;100.00;97535.41;5035024;28;20405;-76
2022/09/21 08:23:47;;;;;;;0.10;0.10;;;;;;;9.62;100.00;97534.50;5020018;28;20032;-76
2022/09/21 08:26:18;;;;;;;0.10;0.10;;;;;;;9.75;100.00;97529.06;5038150;28;20119;-76
2022/09/21 08:28:48;;;;;;;0.10;0.10;;;;;;;9.85;100.00;97533.91;5037187;28;20119;-76
2022/09/21 08:31:16;;;;;;;0.10;0.10;;;;;;;9.90;100.00;97531.41;5035184;28;20136;-76
2022/09/21 08:33:44;;;;;;;0.13;0.10;;;;;;;10.03;100.00;97531.28;5039538;28;20560;-76
2022/09/21 08:36:10;;;;;;;0.10;0.10;;;;;;;10.13;100.00;97538.84;5038835;28;20127;-76
2022/09/21 08:38:37;;;;;;;0.13;0.10;;;;;;;10.20;100.00;97531.56;5037203;28;20031;-76
2022/09/21 08:41:25;;;;;;;0.10;0.10;;;;;;;10.25;100.00;97530.94;5034701;28;20386;-76
2022/09/21 08:44:04;;;;;;;0.10;0.10;;;;;;;10.29;100.00;97524.94;5039094;28;20037;-75
2022/09/21 08:46:32;;;;;;;0.10;0.10;;;;;;;10.45;100.00;97528.88;5011623;28;20041;-76
2022/09/21 08:49:05;;;;;;;0.10;0.10;;;;;;;10.57;100.00;97534.31;5038800;28;20036;-75
2022/09/21 08:51:35;;;;;;;0.10;0.10;;;;;;;10.60;100.00;97533.88;5033976;28;20548;-76
2022/09/21 08:54:14;;;;;;;0.10;0.10;;;;;;;10.68;100.00;97535.44;5038250;28;20120;-76
2022/09/21 08:56:39;;;;;;;0.10;0.10;;;;;;;10.72;100.00;97524.06;5034043;28;20521;-76
2022/09/21 08:59:12;;;;;;;0.10;0.10;;;;;;;10.82;100.00;97528.91;5027521;28;20274;-75
2022/09/21 09:01:52;;;;;;;0.20;0.10;;;;;;;11.08;100.00;97530.44;5034902;28;20131;-75
2022/09/21 09:04:27;;;;;;;0.10;0.10;;;;;;;11.19;100.00;97528.84;5040023;28;20095;-75
2022/09/21 09:07:37;;;;;;;0.20;0.10;;;;;;;11.21;100.00;97527.59;5035910;28;20084;-76
2022/09/21 09:10:18;;;;;;;0.10;0.10;;;;;;;11.52;100.00;97521.19;5036890;28;20419;-76
2022/09/21 09:12:59;;;;;;;0.10;0.10;;;;;;;11.55;100.00;97533.31;4999457;28;20037;-76
2022/09/21 09:15:46;;;;;;;0.10;0.10;;;;;;;11.48;100.00;97529.91;5007688;28;20198;-76
2022/09/21 09:18:37;;;;;;;0.10;0.10;;;;;;;11.65;100.00;97526.34;4997936;28;20033;-76
2022/09/21 09:21:08;;;;;;;0.20;0.10;;;;;;;11.78;100.00;97525.31;5015180;28;20101;-76
2022/09/21 09:23:56;;;;;;;0.10;0.10;;;;;;;11.85;100.00;97526.06;5013847;28;20033;-76
2022/09/21 09:26:54;;;;;;;0.10;0.10;;;;;;;12.36;100.00;97523.78;5015115;28;20041;-76
2022/09/21 09:29:54;;;;;;;0.10;0.10;;;;;;;12.98;100.00;97527.53;5012398;28;20160;-76
2022/09/21 09:32:28;;;;;;;0.10;0.10;;;;;;;12.79;100.00;97528.75;4994200;28;20049;-76
2022/09/21 09:35:04;;;;;;;0.10;0.10;;;;;;;12.66;100.00;97524.44;5015324;28;20072;-76
2022/09/21 09:37:38;;;;;;;0.10;0.10;;;;;;;12.61;100.00;97527.03;4989806;28;20033;-76
2022/09/21 09:40:06;;;;;;;0.10;0.10;;;;;;;12.46;100.00;97530.22;5016246;28;20036;-76
2022/09/21 09:43:03;;;;;;;0.15;0.10;;;;;;;12.46;100.00;97519.47;5014146;28;20040;-76
2022/09/21 09:45:41;;;;;;;0.10;0.10;;;;;;;12.47;100.00;97534.53;5014666;28;20140;-76
2022/09/21 09:48:37;;;;;;;0.10;0.10;;;;;;;12.68;100.00;97529.56;5014865;28;20047;-76
2022/09/21 09:51:03;;;;;;;0.10;0.10;;;;;;;12.65;100.00;97522.81;5014816;28;20045;-76
2022/09/21 09:53:30;;;;;;;0.10;0.10;;;;;;;12.88;100.00;97521.97;5015545;28;20562;-76
2022/09/21 09:55:57;;;;;;;0.10;0.10;;;;;;;12.99;100.00;97521.09;5013057;28;20045;-76
2022/09/21 09:58:40;;;;;;;0.10;0.10;;;;;;;13.14;100.00;97517.91;5007323;28;20215;-76
2022/09/21 10:01:06;;;;;;;0.10;0.10;;;;;;;13.90;100.00;97515.81;4997008;28;20479;-76
2022/09/21 10:03:32;;;;;;;0.13;0.13;;;;;;;14.84;100.00;97507.00;5016087;28;20034;-76
2022/09/21 10:05:57;;;;;;;0.10;0.10;;;;;;;15.56;100.00;97504.88;5015465;28;20041;-76
2022/09/21 10:08:35;;;;;;;0.10;0.10;;;;;;;15.44;98.92;97500.69;4998435;28;20083;-76
2022/09/21 10:11:02;;;;;;;0.10;0.10;;;;;;;16.34;95.16;97496.34;5024187;28;20045;-76
2022/09/21 10:13:42;;;;;;;0.10;0.10;;;;;;;17.09;91.89;97499.75;5038290;28;20048;-76
2022/09/21 10:16:22;;;;;;;0.20;0.20;;;;;;;18.07;79.16;97489.69;5038159;28;20414;-76
2022/09/21 10:18:55;;;;;;;0.10;0.10;;;;;;;20.24;61.30;97488.19;5038900;28;20060;-76
2022/09/21 10:21:22;;;;;;;0.20;0.20;;;;;;;22.23;53.18;97472.84;5036895;28;20032;-76
2022/09/21 10:23:58;;;;;;;0.20;0.20;;;;;;;24.02;42.36;97471.94;5038790;28;20271;-76
2022/09/21 10:26:34;;;;;;;0.15;0.15;;;;;;;25.18;36.48;97473.53;5035121;28;20036;-77
2022/09/21 10:29:15;;;;;;;0.20;0.20;;;;;;;26.53;36.59;97473.38;5040836;28;20071;-77
2022/09/21 10:31:56;;;;;;;0.20;0.20;;;;;;;26.90;30.82;97463.56;5037271;28;20045;-77
2022/09/21 10:34:24;;;;;;;0.10;0.10;;;;;;;24.93;33.96;97474.22;4340751;28;10000364;-77
2022/09/21 10:36:53;;;;;;;0.10;0.10;;;;;;;21.41;41.80;97480.66;5035293;28;20106;-77
2022/09/21 10:39:23;;;;;;;0.10;0.10;;;;;;;21.85;44.73;97476.72;5003092;28;20041;-77
2022/09/21 10:41:57;;;;;;;0.20;0.20;;;;;;;25.25;35.97;97471.13;5033311;28;20032;-77
2022/09/21 10:44:27;;;;;;;0.10;0.10;;;;;;;28.33;31.71;97466.31;5016270;28;20100;-76
2022/09/21 10:46:54;;;;;;;0.17;0.17;;;;;;;29.98;28.65;97464.13;5036440;28;20051;-77
2022/09/21 10:49:27;;;;;;;0.10;0.10;;;;;;;30.92;26.59;97460.75;5038176;28;20051;-77
2022/09/21 10:51:57;;;;;;;0.20;0.20;;;;;;;32.07;23.04;97456.69;5019088;28;20294;-77
2022/09/21 10:54:27;;;;;;;0.00;0.00;;;;;;;24.10;30.18;97466.53;5042526;28;20478;-76
2022/09/21 10:57:07;;;;;;;0.10;0.10;;;;;;;20.69;37.91;97475.25;5037158;28;20036;-77
2022/09/21 10:59:36;;;;;;;0.10;0.10;;;;;;;19.86;44.81;97478.19;5025926;28;20479;-76
2022/09/21 11:02:28;;;;;;;0.08;0.08;;;;;;;21.77;42.04;97469.22;5039285;28;20029;-76
2022/09/21 11:05:01;;;;;;;0.10;0.10;;;;;;;19.29;53.32;97464.13;5040129;28;20045;-77
2022/09/21 11:07:32;;;;;;;0.10;0.10;;;;;;;18.85;63.43;97474.94;5036039;28;20076;-77
2022/09/21 11:09:58;;;;;;;;;;;;;;;24.54;37.63;97462.16;5037579;28;20479;-76
2022/09/21 11:12:39;;;;;;;0.10;0.10;;;;;;;24.07;36.18;97453.50;5038188;28;19965;-76
2022/09/21 11:15:22;;;;;;;0.05;0.05;;;;;;;20.28;41.96;97463.97;5040431;28;20422;-76
2022/09/21 11:17:57;;;;;;;0.05;0.05;;;;;;;17.87;59.95;97464.47;5038480;28;20689;-77
2022/09/21 11:20:38;;;;;;;0.10;0.10;;;;;;;17.07;68.95;97467.56;5021427;28;20037;-75
2022/09/21 11:23:42;;;;;;;0.10;0.10;;;;;;;16.42;75.07;97474.28;5037194;28;20064;-76
2022/09/21 11:26:16;;;;;;;0.10;0.10;;;;;;;16.33;81.34;97465.81;5021317;28;20033;-75
2022/09/21 11:29:05;;;;;;;0.10;0.10;;;;;;;15.91;81.86;97462.28;5038496;28;20090;-76
2022/09/21 11:31:58;;;;;;;0.10;0.10;;;;;;;15.80;79.10;97467.63;5021612;28;20052;-76
2022/09/21 11:34:46;;;;;;;0.10;0.10;;;;;;;15.65;78.46;97459.41;5040529;28;20476;-75
2022/09/21 11:37:34;;;;;;;0.10;0.10;;;;;;;15.24;82.27;97458.94;5035847;28;20590;-76
2022/09/21 11:40:27;;;;;;;0.10;0.10;;;;;;;15.07;83.43;97463.63;4992044;28;20044;-75
2022/09/21 11:43:19;;;;;;;0.10;0.10;;;;;;;15.40;77.35;97456.41;5019817;28;20068;-75
2022/09/21 11:45:57;;;;;;;;;;;;;;;15.30;79.38;97457.94;5019736;28;20033;-75
2022/09/21 11:48:55;;;;;;;0.10;0.10;;;;;;;15.73;74.21;97458.94;5037049;28;19974;-75
2022/09/21 11:51:37;;;;;;;0.10;0.10;;;;;;;15.81;69.19;97453.06;5036900;28;20029;-75
2022/09/21 11:54:14;;;;;;;0.10;0.10;;;;;;;16.08;74.90;97458.38;5040831;28;20048;-76
2022/09/21 11:56:48;;;;;;;0.10;0.10;;;;;;;15.94;66.10;97448.28;5035561;28;20029;-75
2022/09/21 11:59:15;;;;;;;0.10;0.10;;;;;;;15.63;67.38;97447.22;5021424;28;20051;-75